Declo, Idaho
Current Conditions -  °F | °C
As of 12:05 AM on Thursday 18 Dec 2014 (Local Time) from KBYI Reporting Station
Clear Clear  
Wind Chill: 25°   Ceiling: Unl
Heat Index: 25°   Visibility: 7mi
Dew Point: 23°   Wind: 0mph
Humidity: 92%   Direction: NA
Pressure: 30.03"   Gusts: NA
Location:  42.52°N, 113.63°W
Report Text: KBYI 180705Z AUTO 00000KT 7SM CLR M04/M05 A3003 RMK AO2 T10391050
Loading
Personal Weather Stations






























Interactive Weather Map New forecast layout! Learn more

10-Day Weather Forecast

Advertisements
Track Severe Weather on mobile